sensor_id;sensor_type;location;lat;lon;timestamp;P1;durP1;ratioP1;P2;durP2;ratioP2
15679;SDS011;15488;48.114;11.532;2022-07-01T00:01:04;1.00;;;1.00;;
15679;SDS011;15488;48.114;11.532;2022-07-01T00:03:33;0.98;;;0.98;;
15679;SDS011;15488;48.114;11.532;2022-07-01T00:06:00;0.93;;;0.93;;
15679;SDS011;15488;48.114;11.532;2022-07-01T00:08:28;0.90;;;0.90;;
15679;SDS011;15488;48.114;11.532;2022-07-01T00:10:55;0.90;;;0.90;;
15679;SDS011;15488;48.114;11.532;2022-07-01T00:13:23;0.95;;;0.95;;
15679;SDS011;15488;48.114;11.532;2022-07-01T00:15:50;0.90;;;0.90;;
15679;SDS011;15488;48.114;11.532;2022-07-01T00:18:18;1.00;;;1.00;;
15679;SDS011;15488;48.114;11.532;2022-07-01T00:20:47;0.90;;;0.90;;
15679;SDS011;15488;48.114;11.532;2022-07-01T00:23:15;0.85;;;0.85;;
15679;SDS011;15488;48.114;11.532;2022-07-01T00:25:43;1.00;;;1.00;;
15679;SDS011;15488;48.114;11.532;2022-07-01T00:28:11;0.75;;;0.75;;
15679;SDS011;15488;48.114;11.532;2022-07-01T00:30:39;0.98;;;0.98;;
15679;SDS011;15488;48.114;11.532;2022-07-01T00:33:06;0.97;;;0.97;;
15679;SDS011;15488;48.114;11.532;2022-07-01T00:35:34;0.80;;;0.80;;
15679;SDS011;15488;48.114;11.532;2022-07-01T00:38:03;0.93;;;0.93;;
15679;SDS011;15488;48.114;11.532;2022-07-01T00:40:30;0.90;;;0.90;;
15679;SDS011;15488;48.114;11.532;2022-07-01T00:42:58;0.80;;;0.80;;
15679;SDS011;15488;48.114;11.532;2022-07-01T00:45:25;1.00;;;1.00;;
15679;SDS011;15488;48.114;11.532;2022-07-01T00:47:53;0.90;;;0.90;;
15679;SDS011;15488;48.114;11.532;2022-07-01T00:50:21;0.80;;;0.80;;
15679;SDS011;15488;48.114;11.532;2022-07-01T00:52:49;0.80;;;0.80;;
15679;SDS011;15488;48.114;11.532;2022-07-01T00:55:18;1.17;;;1.10;;
15679;SDS011;15488;48.114;11.532;2022-07-01T00:57:46;0.87;;;0.87;;
15679;SDS011;15488;48.114;11.532;2022-07-01T01:00:14;0.90;;;0.90;;
15679;SDS011;15488;48.114;11.532;2022-07-01T01:02:43;0.90;;;0.90;;
15679;SDS011;15488;48.114;11.532;2022-07-01T01:05:11;0.80;;;0.80;;
15679;SDS011;15488;48.114;11.532;2022-07-01T01:07:38;1.00;;;1.00;;
15679;SDS011;15488;48.114;11.532;2022-07-01T01:10:06;0.80;;;0.80;;
15679;SDS011;15488;48.114;11.532;2022-07-01T01:12:35;1.00;;;1.00;;
15679;SDS011;15488;48.114;11.532;2022-07-01T01:15:03;0.87;;;0.87;;
15679;SDS011;15488;48.114;11.532;2022-07-01T01:17:32;0.90;;;0.90;;
15679;SDS011;15488;48.114;11.532;2022-07-01T01:19:59;0.95;;;0.95;;
15679;SDS011;15488;48.114;11.532;2022-07-01T01:22:28;0.87;;;0.87;;
15679;SDS011;15488;48.114;11.532;2022-07-01T01:24:56;0.80;;;0.80;;
15679;SDS011;15488;48.114;11.532;2022-07-01T01:27:24;0.97;;;0.97;;
15679;SDS011;15488;48.114;11.532;2022-07-01T01:29:52;1.00;;;1.00;;
15679;SDS011;15488;48.114;11.532;2022-07-01T01:32:19;1.00;;;1.00;;
15679;SDS011;15488;48.114;11.532;2022-07-01T01:34:47;0.93;;;0.93;;
15679;SDS011;15488;48.114;11.532;2022-07-01T01:37:14;0.90;;;0.90;;
15679;SDS011;15488;48.114;11.532;2022-07-01T01:39:43;0.90;;;0.90;;
15679;SDS011;15488;48.114;11.532;2022-07-01T01:42:11;1.00;;;1.00;;
15679;SDS011;15488;48.114;11.532;2022-07-01T01:44:38;1.00;;;1.00;;
15679;SDS011;15488;48.114;11.532;2022-07-01T01:47:06;0.88;;;0.88;;
15679;SDS011;15488;48.114;11.532;2022-07-01T01:49:33;0.80;;;0.80;;
15679;SDS011;15488;48.114;11.532;2022-07-01T01:52:01;0.90;;;0.90;;
15679;SDS011;15488;48.114;11.532;2022-07-01T01:54:29;0.80;;;0.80;;
15679;SDS011;15488;48.114;11.532;2022-07-01T01:56:58;0.97;;;0.97;;
15679;SDS011;15488;48.114;11.532;2022-07-01T01:59:26;0.93;;;0.93;;
15679;SDS011;15488;48.114;11.532;2022-07-01T02:01:53;0.90;;;0.90;;
15679;SDS011;15488;48.114;11.532;2022-07-01T02:04:21;0.90;;;0.90;;
15679;SDS011;15488;48.114;11.532;2022-07-01T02:06:49;0.90;;;0.90;;
15679;SDS011;15488;48.114;11.532;2022-07-01T02:09:16;0.90;;;0.90;;
15679;SDS011;15488;48.114;11.532;2022-07-01T02:11:44;0.80;;;0.80;;
15679;SDS011;15488;48.114;11.532;2022-07-01T02:14:13;1.03;;;1.03;;
15679;SDS011;15488;48.114;11.532;2022-07-01T02:16:40;0.70;;;0.70;;
15679;SDS011;15488;48.114;11.532;2022-07-01T02:19:07;0.82;;;0.82;;
15679;SDS011;15488;48.114;11.532;2022-07-01T02:21:35;0.80;;;0.80;;
15679;SDS011;15488;48.114;11.532;2022-07-01T02:24:02;0.87;;;0.87;;
15679;SDS011;15488;48.114;11.532;2022-07-01T02:26:30;0.63;;;0.63;;
15679;SDS011;15488;48.114;11.532;2022-07-01T02:28:58;0.82;;;0.82;;
15679;SDS011;15488;48.114;11.532;2022-07-01T02:31:26;0.90;;;0.90;;
15679;SDS011;15488;48.114;11.532;2022-07-01T02:33:54;0.90;;;0.90;;
15679;SDS011;15488;48.114;11.532;2022-07-01T02:36:21;0.88;;;0.88;;
15679;SDS011;15488;48.114;11.532;2022-07-01T02:38:49;1.00;;;1.00;;
15679;SDS011;15488;48.114;11.532;2022-07-01T02:41:16;0.80;;;0.80;;
15679;SDS011;15488;48.114;11.532;2022-07-01T02:43:44;0.80;;;0.80;;
15679;SDS011;15488;48.114;11.532;2022-07-01T02:46:11;1.00;;;1.00;;
15679;SDS011;15488;48.114;11.532;2022-07-01T02:48:40;0.73;;;0.73;;
15679;SDS011;15488;48.114;11.532;2022-07-01T02:51:07;0.83;;;0.83;;
15679;SDS011;15488;48.114;11.532;2022-07-01T02:53:35;0.80;;;0.80;;
15679;SDS011;15488;48.114;11.532;2022-07-01T02:56:02;0.80;;;0.80;;
15679;SDS011;15488;48.114;11.532;2022-07-01T02:58:30;0.70;;;0.70;;
15679;SDS011;15488;48.114;11.532;2022-07-01T03:00:57;0.70;;;0.70;;
15679;SDS011;15488;48.114;11.532;2022-07-01T03:03:25;0.70;;;0.70;;
15679;SDS011;15488;48.114;11.532;2022-07-01T03:05:54;0.87;;;0.87;;
15679;SDS011;15488;48.114;11.532;2022-07-01T03:08:21;0.80;;;0.80;;
15679;SDS011;15488;48.114;11.532;2022-07-01T03:10:48;0.80;;;0.80;;
15679;SDS011;15488;48.114;11.532;2022-07-01T03:13:16;0.90;;;0.90;;
15679;SDS011;15488;48.114;11.532;2022-07-01T03:15:44;0.90;;;0.90;;
15679;SDS011;15488;48.114;11.532;2022-07-01T03:18:12;0.80;;;0.80;;
15679;SDS011;15488;48.114;11.532;2022-07-01T03:20:40;0.73;;;0.73;;
15679;SDS011;15488;48.114;11.532;2022-07-01T03:23:08;0.80;;;0.80;;
15679;SDS011;15488;48.114;11.532;2022-07-01T03:25:36;0.80;;;0.80;;
15679;SDS011;15488;48.114;11.532;2022-07-01T03:28:03;0.80;;;0.80;;
15679;SDS011;15488;48.114;11.532;2022-07-01T03:30:32;0.87;;;0.87;;
15679;SDS011;15488;48.114;11.532;2022-07-01T03:32:59;0.88;;;0.88;;
15679;SDS011;15488;48.114;11.532;2022-07-01T03:35:26;0.70;;;0.70;;
15679;SDS011;15488;48.114;11.532;2022-07-01T03:38:04;0.80;;;0.80;;
15679;SDS011;15488;48.114;11.532;2022-07-01T03:40:34;0.93;;;0.93;;
15679;SDS011;15488;48.114;11.532;2022-07-01T03:43:01;0.87;;;0.87;;
15679;SDS011;15488;48.114;11.532;2022-07-01T03:45:29;0.60;;;0.60;;
15679;SDS011;15488;48.114;11.532;2022-07-01T03:47:58;0.80;;;0.80;;
15679;SDS011;15488;48.114;11.532;2022-07-01T03:50:27;0.90;;;0.90;;
15679;SDS011;15488;48.114;11.532;2022-07-01T03:52:54;0.77;;;0.77;;
15679;SDS011;15488;48.114;11.532;2022-07-01T03:55:41;0.70;;;0.70;;
15679;SDS011;15488;48.114;11.532;2022-07-01T03:58:09;0.93;;;0.93;;
15679;SDS011;15488;48.114;11.532;2022-07-01T04:00:37;0.90;;;0.90;;
15679;SDS011;15488;48.114;11.532;2022-07-01T04:03:06;0.80;;;0.80;;
15679;SDS011;15488;48.114;11.532;2022-07-01T04:05:34;0.80;;;0.80;;
15679;SDS011;15488;48.114;11.532;2022-07-01T04:08:03;0.80;;;0.80;;
15679;SDS011;15488;48.114;11.532;2022-07-01T04:10:32;0.83;;;0.83;;
15679;SDS011;15488;48.114;11.532;2022-07-01T04:13:02;0.80;;;0.80;;
15679;SDS011;15488;48.114;11.532;2022-07-01T04:15:30;0.68;;;0.68;;
15679;SDS011;15488;48.114;11.532;2022-07-01T04:17:58;0.70;;;0.70;;
15679;SDS011;15488;48.114;11.532;2022-07-01T04:20:25;0.70;;;0.70;;
15679;SDS011;15488;48.114;11.532;2022-07-01T04:22:53;0.87;;;0.87;;
15679;SDS011;15488;48.114;11.532;2022-07-01T04:25:20;0.87;;;0.87;;
15679;SDS011;15488;48.114;11.532;2022-07-01T04:27:48;0.88;;;0.88;;
15679;SDS011;15488;48.114;11.532;2022-07-01T04:30:17;0.80;;;0.80;;
15679;SDS011;15488;48.114;11.532;2022-07-01T04:32:44;0.80;;;0.80;;
15679;SDS011;15488;48.114;11.532;2022-07-01T04:35:11;0.80;;;0.80;;
15679;SDS011;15488;48.114;11.532;2022-07-01T04:37:39;0.80;;;0.80;;
15679;SDS011;15488;48.114;11.532;2022-07-01T04:40:07;0.60;;;0.60;;
15679;SDS011;15488;48.114;11.532;2022-07-01T04:42:35;0.80;;;0.80;;
15679;SDS011;15488;48.114;11.532;2022-07-01T04:45:01;0.77;;;0.77;;
15679;SDS011;15488;48.114;11.532;2022-07-01T04:47:30;0.70;;;0.70;;
15679;SDS011;15488;48.114;11.532;2022-07-01T04:49:58;0.70;;;0.70;;
15679;SDS011;15488;48.114;11.532;2022-07-01T04:52:27;0.60;;;0.60;;
15679;SDS011;15488;48.114;11.532;2022-07-01T04:54:54;0.70;;;0.70;;
15679;SDS011;15488;48.114;11.532;2022-07-01T04:57:22;0.83;;;0.83;;
15679;SDS011;15488;48.114;11.532;2022-07-01T04:59:49;0.80;;;0.80;;
15679;SDS011;15488;48.114;11.532;2022-07-01T05:02:17;0.70;;;0.70;;
15679;SDS011;15488;48.114;11.532;2022-07-01T05:04:45;0.60;;;0.60;;
15679;SDS011;15488;48.114;11.532;2022-07-01T05:07:13;0.80;;;0.80;;
15679;SDS011;15488;48.114;11.532;2022-07-01T05:09:54;0.80;;;0.80;;
15679;SDS011;15488;48.114;11.532;2022-07-01T05:12:22;0.70;;;0.70;;
15679;SDS011;15488;48.114;11.532;2022-07-01T05:14:49;0.70;;;0.70;;
15679;SDS011;15488;48.114;11.532;2022-07-01T05:17:16;0.60;;;0.60;;
15679;SDS011;15488;48.114;11.532;2022-07-01T05:19:45;0.80;;;0.80;;
15679;SDS011;15488;48.114;11.532;2022-07-01T05:22:30;0.80;;;0.80;;
15679;SDS011;15488;48.114;11.532;2022-07-01T05:24:58;0.90;;;0.90;;
15679;SDS011;15488;48.114;11.532;2022-07-01T05:27:25;0.70;;;0.70;;
15679;SDS011;15488;48.114;11.532;2022-07-01T05:29:53;0.70;;;0.70;;
15679;SDS011;15488;48.114;11.532;2022-07-01T05:32:20;0.80;;;0.80;;
15679;SDS011;15488;48.114;11.532;2022-07-01T05:34:49;0.70;;;0.70;;
15679;SDS011;15488;48.114;11.532;2022-07-01T05:37:17;0.83;;;0.83;;
15679;SDS011;15488;48.114;11.532;2022-07-01T05:39:46;0.80;;;0.80;;
15679;SDS011;15488;48.114;11.532;2022-07-01T05:42:14;0.73;;;0.73;;
15679;SDS011;15488;48.114;11.532;2022-07-01T05:44:41;0.60;;;0.60;;
15679;SDS011;15488;48.114;11.532;2022-07-01T05:47:09;0.73;;;0.73;;
15679;SDS011;15488;48.114;11.532;2022-07-01T05:49:36;0.80;;;0.80;;
15679;SDS011;15488;48.114;11.532;2022-07-01T05:52:05;0.63;;;0.63;;
15679;SDS011;15488;48.114;11.532;2022-07-01T05:54:33;0.80;;;0.80;;
15679;SDS011;15488;48.114;11.532;2022-07-01T05:57:01;0.80;;;0.80;;
15679;SDS011;15488;48.114;11.532;2022-07-01T05:59:29;0.68;;;0.68;;
15679;SDS011;15488;48.114;11.532;2022-07-01T06:01:56;0.80;;;0.80;;
15679;SDS011;15488;48.114;11.532;2022-07-01T06:04:23;0.80;;;0.80;;
15679;SDS011;15488;48.114;11.532;2022-07-01T06:06:51;0.73;;;0.73;;
15679;SDS011;15488;48.114;11.532;2022-07-01T06:09:20;0.90;;;0.90;;
15679;SDS011;15488;48.114;11.532;2022-07-01T06:11:47;0.70;;;0.70;;
15679;SDS011;15488;48.114;11.532;2022-07-01T06:14:14;0.80;;;0.70;;
15679;SDS011;15488;48.114;11.532;2022-07-01T06:16:42;0.70;;;0.70;;
15679;SDS011;15488;48.114;11.532;2022-07-01T06:19:09;0.80;;;0.80;;
15679;SDS011;15488;48.114;11.532;2022-07-01T06:21:37;0.60;;;0.60;;
15679;SDS011;15488;48.114;11.532;2022-07-01T06:24:05;0.70;;;0.70;;
15679;SDS011;15488;48.114;11.532;2022-07-01T06:26:33;0.85;;;0.85;;
15679;SDS011;15488;48.114;11.532;2022-07-01T06:29:01;0.68;;;0.68;;
15679;SDS011;15488;48.114;11.532;2022-07-01T06:31:28;0.70;;;0.70;;
15679;SDS011;15488;48.114;11.532;2022-07-01T06:33:58;0.77;;;0.77;;
15679;SDS011;15488;48.114;11.532;2022-07-01T06:36:25;0.80;;;0.80;;
15679;SDS011;15488;48.114;11.532;2022-07-01T06:38:53;0.70;;;0.70;;
15679;SDS011;15488;48.114;11.532;2022-07-01T06:41:20;0.70;;;0.70;;
15679;SDS011;15488;48.114;11.532;2022-07-01T06:43:55;0.70;;;0.70;;
15679;SDS011;15488;48.114;11.532;2022-07-01T06:46:23;0.70;;;0.70;;
15679;SDS011;15488;48.114;11.532;2022-07-01T06:48:51;0.80;;;0.80;;
15679;SDS011;15488;48.114;11.532;2022-07-01T06:51:19;0.80;;;0.80;;
15679;SDS011;15488;48.114;11.532;2022-07-01T06:53:46;0.70;;;0.70;;
15679;SDS011;15488;48.114;11.532;2022-07-01T06:56:15;0.80;;;0.80;;
15679;SDS011;15488;48.114;11.532;2022-07-01T06:58:43;0.55;;;0.55;;
15679;SDS011;15488;48.114;11.532;2022-07-01T07:01:12;0.65;;;0.65;;
15679;SDS011;15488;48.114;11.532;2022-07-01T07:03:39;0.88;;;0.88;;
15679;SDS011;15488;48.114;11.532;2022-07-01T07:06:07;0.60;;;0.60;;
15679;SDS011;15488;48.114;11.532;2022-07-01T07:08:34;0.80;;;0.80;;
15679;SDS011;15488;48.114;11.532;2022-07-01T07:11:02;0.80;;;0.80;;
15679;SDS011;15488;48.114;11.532;2022-07-01T07:13:30;0.70;;;0.70;;
15679;SDS011;15488;48.114;11.532;2022-07-01T07:15:58;0.70;;;0.70;;
15679;SDS011;15488;48.114;11.532;2022-07-01T07:18:26;0.70;;;0.70;;
15679;SDS011;15488;48.114;11.532;2022-07-01T07:20:54;0.70;;;0.70;;
15679;SDS011;15488;48.114;11.532;2022-07-01T07:23:21;0.77;;;0.77;;
15679;SDS011;15488;48.114;11.532;2022-07-01T07:25:49;0.70;;;0.70;;
15679;SDS011;15488;48.114;11.532;2022-07-01T07:28:16;0.73;;;0.73;;
15679;SDS011;15488;48.114;11.532;2022-07-01T07:30:44;0.70;;;0.70;;
15679;SDS011;15488;48.114;11.532;2022-07-01T07:33:11;0.80;;;0.80;;
15679;SDS011;15488;48.114;11.532;2022-07-01T07:35:40;0.77;;;0.77;;
15679;SDS011;15488;48.114;11.532;2022-07-01T07:38:08;0.70;;;0.70;;
15679;SDS011;15488;48.114;11.532;2022-07-01T07:40:36;0.68;;;0.68;;
15679;SDS011;15488;48.114;11.532;2022-07-01T07:43:04;0.70;;;0.70;;
15679;SDS011;15488;48.114;11.532;2022-07-01T07:45:33;0.60;;;0.60;;
15679;SDS011;15488;48.114;11.532;2022-07-01T07:48:00;0.60;;;0.60;;
15679;SDS011;15488;48.114;11.532;2022-07-01T07:50:29;1.00;;;0.80;;
15679;SDS011;15488;48.114;11.532;2022-07-01T07:52:58;0.70;;;0.70;;
15679;SDS011;15488;48.114;11.532;2022-07-01T07:55:25;0.70;;;0.70;;
15679;SDS011;15488;48.114;11.532;2022-07-01T07:57:53;0.70;;;0.70;;
15679;SDS011;15488;48.114;11.532;2022-07-01T08:00:20;0.60;;;0.60;;
15679;SDS011;15488;48.114;11.532;2022-07-01T08:02:48;0.93;;;0.93;;
15679;SDS011;15488;48.114;11.532;2022-07-01T08:05:16;0.80;;;0.80;;
15679;SDS011;15488;48.114;11.532;2022-07-01T08:07:43;0.70;;;0.70;;
15679;SDS011;15488;48.114;11.532;2022-07-01T08:10:12;0.75;;;0.75;;
15679;SDS011;15488;48.114;11.532;2022-07-01T08:12:40;0.70;;;0.70;;
15679;SDS011;15488;48.114;11.532;2022-07-01T08:15:07;0.70;;;0.70;;
15679;SDS011;15488;48.114;11.532;2022-07-01T08:17:36;0.80;;;0.80;;
15679;SDS011;15488;48.114;11.532;2022-07-01T08:20:04;0.70;;;0.70;;
15679;SDS011;15488;48.114;11.532;2022-07-01T08:22:32;0.70;;;0.70;;
15679;SDS011;15488;48.114;11.532;2022-07-01T08:25:03;0.50;;;0.50;;
15679;SDS011;15488;48.114;11.532;2022-07-01T08:27:32;0.70;;;0.70;;
15679;SDS011;15488;48.114;11.532;2022-07-01T08:30:00;0.60;;;0.60;;
15679;SDS011;15488;48.114;11.532;2022-07-01T08:32:27;0.60;;;0.60;;
15679;SDS011;15488;48.114;11.532;2022-07-01T08:34:55;0.70;;;0.70;;
15679;SDS011;15488;48.114;11.532;2022-07-01T08:37:23;0.63;;;0.63;;
15679;SDS011;15488;48.114;11.532;2022-07-01T08:39:50;0.80;;;0.80;;
15679;SDS011;15488;48.114;11.532;2022-07-01T08:42:18;0.70;;;0.70;;
15679;SDS011;15488;48.114;11.532;2022-07-01T08:44:47;0.80;;;0.80;;
15679;SDS011;15488;48.114;11.532;2022-07-01T08:47:14;0.70;;;0.70;;
15679;SDS011;15488;48.114;11.532;2022-07-01T08:49:42;0.70;;;0.70;;
15679;SDS011;15488;48.114;11.532;2022-07-01T08:52:09;0.60;;;0.60;;
15679;SDS011;15488;48.114;11.532;2022-07-01T08:54:37;0.75;;;0.75;;
15679;SDS011;15488;48.114;11.532;2022-07-01T08:57:06;0.73;;;0.73;;
15679;SDS011;15488;48.114;11.532;2022-07-01T08:59:34;1.08;;;0.70;;
15679;SDS011;15488;48.114;11.532;2022-07-01T09:02:03;0.70;;;0.70;;
15679;SDS011;15488;48.114;11.532;2022-07-01T09:04:31;0.70;;;0.70;;
15679;SDS011;15488;48.114;11.532;2022-07-01T09:07:03;0.70;;;0.70;;
15679;SDS011;15488;48.114;11.532;2022-07-01T09:09:33;0.80;;;0.80;;
15679;SDS011;15488;48.114;11.532;2022-07-01T09:12:02;0.80;;;0.80;;
15679;SDS011;15488;48.114;11.532;2022-07-01T09:14:31;0.70;;;0.70;;
15679;SDS011;15488;48.114;11.532;2022-07-01T09:17:00;0.60;;;0.60;;
15679;SDS011;15488;48.114;11.532;2022-07-01T09:19:31;0.70;;;0.70;;
15679;SDS011;15488;48.114;11.532;2022-07-01T09:22:02;0.70;;;0.70;;
15679;SDS011;15488;48.114;11.532;2022-07-01T09:24:31;0.60;;;0.60;;
15679;SDS011;15488;48.114;11.532;2022-07-01T09:27:01;0.67;;;0.67;;
15679;SDS011;15488;48.114;11.532;2022-07-01T09:29:34;0.70;;;0.70;;
15679;SDS011;15488;48.114;11.532;2022-07-01T09:32:05;0.70;;;0.70;;
15679;SDS011;15488;48.114;11.532;2022-07-01T09:34:35;0.70;;;0.70;;
15679;SDS011;15488;48.114;11.532;2022-07-01T09:37:11;0.68;;;0.68;;
15679;SDS011;15488;48.114;11.532;2022-07-01T09:39:42;0.70;;;0.70;;
15679;SDS011;15488;48.114;11.532;2022-07-01T09:42:10;0.70;;;0.70;;
15679;SDS011;15488;48.114;11.532;2022-07-01T09:44:50;0.70;;;0.70;;
15679;SDS011;15488;48.114;11.532;2022-07-01T09:47:22;0.50;;;0.50;;
15679;SDS011;15488;48.114;11.532;2022-07-01T09:49:50;0.60;;;0.60;;
15679;SDS011;15488;48.114;11.532;2022-07-01T09:52:18;0.70;;;0.70;;
15679;SDS011;15488;48.114;11.532;2022-07-01T09:54:46;0.60;;;0.60;;
15679;SDS011;15488;48.114;11.532;2022-07-01T09:57:15;0.67;;;0.67;;
15679;SDS011;15488;48.114;11.532;2022-07-01T09:59:43;0.70;;;0.70;;
15679;SDS011;15488;48.114;11.532;2022-07-01T10:02:11;0.60;;;0.60;;
15679;SDS011;15488;48.114;11.532;2022-07-01T10:04:42;0.60;;;0.60;;
15679;SDS011;15488;48.114;11.532;2022-07-01T10:07:20;0.77;;;0.77;;
15679;SDS011;15488;48.114;11.532;2022-07-01T10:09:56;0.60;;;0.60;;
15679;SDS011;15488;48.114;11.532;2022-07-01T10:12:35;0.70;;;0.70;;
15679;SDS011;15488;48.114;11.532;2022-07-01T10:15:05;0.60;;;0.60;;
15679;SDS011;15488;48.114;11.532;2022-07-01T10:17:36;0.68;;;0.68;;
15679;SDS011;15488;48.114;11.532;2022-07-01T10:20:10;0.60;;;0.60;;
15679;SDS011;15488;48.114;11.532;2022-07-01T10:22:39;0.50;;;0.50;;
15679;SDS011;15488;48.114;11.532;2022-07-01T10:28:11;0.57;;;0.57;;
15679;SDS011;15488;48.114;11.532;2022-07-01T10:30:48;0.70;;;0.70;;
15679;SDS011;15488;48.114;11.532;2022-07-01T10:33:30;0.50;;;0.50;;
15679;SDS011;15488;48.114;11.532;2022-07-01T10:36:11;0.57;;;0.57;;
15679;SDS011;15488;48.114;11.532;2022-07-01T10:41:36;0.50;;;0.50;;
15679;SDS011;15488;48.114;11.532;2022-07-01T10:44:05;0.70;;;0.70;;
15679;SDS011;15488;48.114;11.532;2022-07-01T10:46:37;0.70;;;0.70;;
15679;SDS011;15488;48.114;11.532;2022-07-01T10:49:06;0.65;;;0.65;;
15679;SDS011;15488;48.114;11.532;2022-07-01T10:51:48;0.57;;;0.57;;
15679;SDS011;15488;48.114;11.532;2022-07-01T11:03:04;0.50;;;0.50;;
15679;SDS011;15488;48.114;11.532;2022-07-01T11:05:36;0.60;;;0.60;;
15679;SDS011;15488;48.114;11.532;2022-07-01T11:08:06;0.40;;;0.40;;
15679;SDS011;15488;48.114;11.532;2022-07-01T11:10:35;0.60;;;0.60;;
15679;SDS011;15488;48.114;11.532;2022-07-01T11:13:02;0.60;;;0.60;;
15679;SDS011;15488;48.114;11.532;2022-07-01T11:15:30;0.60;;;0.60;;
15679;SDS011;15488;48.114;11.532;2022-07-01T11:17:58;0.70;;;0.70;;
15679;SDS011;15488;48.114;11.532;2022-07-01T11:20:27;0.50;;;0.50;;
15679;SDS011;15488;48.114;11.532;2022-07-01T11:22:57;0.60;;;0.60;;
15679;SDS011;15488;48.114;11.532;2022-07-01T11:25:26;0.65;;;0.65;;
15679;SDS011;15488;48.114;11.532;2022-07-01T11:27:56;0.70;;;0.70;;
15679;SDS011;15488;48.114;11.532;2022-07-01T11:30:23;0.43;;;0.43;;
15679;SDS011;15488;48.114;11.532;2022-07-01T11:32:52;0.63;;;0.63;;
15679;SDS011;15488;48.114;11.532;2022-07-01T11:35:21;0.40;;;0.40;;
15679;SDS011;15488;48.114;11.532;2022-07-01T11:38:22;0.63;;;0.63;;
15679;SDS011;15488;48.114;11.532;2022-07-01T11:41:18;0.50;;;0.50;;
15679;SDS011;15488;48.114;11.532;2022-07-01T11:43:47;0.43;;;0.43;;
15679;SDS011;15488;48.114;11.532;2022-07-01T11:46:16;0.50;;;0.50;;
15679;SDS011;15488;48.114;11.532;2022-07-01T11:48:44;0.60;;;0.60;;
15679;SDS011;15488;48.114;11.532;2022-07-01T11:51:16;0.60;;;0.60;;
15679;SDS011;15488;48.114;11.532;2022-07-01T11:53:45;0.60;;;0.60;;
15679;SDS011;15488;48.114;11.532;2022-07-01T11:56:16;0.60;;;0.60;;
15679;SDS011;15488;48.114;11.532;2022-07-01T11:58:53;0.55;;;0.55;;
15679;SDS011;15488;48.114;11.532;2022-07-01T12:01:23;0.50;;;0.50;;
15679;SDS011;15488;48.114;11.532;2022-07-01T12:03:53;0.50;;;0.50;;
15679;SDS011;15488;48.114;11.532;2022-07-01T12:06:21;0.60;;;0.60;;
15679;SDS011;15488;48.114;11.532;2022-07-01T12:08:50;0.50;;;0.50;;
15679;SDS011;15488;48.114;11.532;2022-07-01T12:11:20;0.43;;;0.43;;
15679;SDS011;15488;48.114;11.532;2022-07-01T12:13:48;0.70;;;0.70;;
15679;SDS011;15488;48.114;11.532;2022-07-01T12:16:17;0.50;;;0.50;;
15679;SDS011;15488;48.114;11.532;2022-07-01T12:18:54;0.60;;;0.60;;
15679;SDS011;15488;48.114;11.532;2022-07-01T12:21:25;0.50;;;0.50;;
15679;SDS011;15488;48.114;11.532;2022-07-01T12:24:07;0.60;;;0.60;;
15679;SDS011;15488;48.114;11.532;2022-07-01T12:26:45;0.57;;;0.57;;
15679;SDS011;15488;48.114;11.532;2022-07-01T12:29:15;0.50;;;0.50;;
15679;SDS011;15488;48.114;11.532;2022-07-01T12:31:43;0.60;;;0.60;;
15679;SDS011;15488;48.114;11.532;2022-07-01T12:37:14;0.50;;;0.50;;
15679;SDS011;15488;48.114;11.532;2022-07-01T12:39:46;0.50;;;0.50;;
15679;SDS011;15488;48.114;11.532;2022-07-01T12:42:26;0.50;;;0.50;;
15679;SDS011;15488;48.114;11.532;2022-07-01T12:44:56;0.50;;;0.50;;
15679;SDS011;15488;48.114;11.532;2022-07-01T12:47:25;0.50;;;0.50;;
15679;SDS011;15488;48.114;11.532;2022-07-01T12:50:09;0.70;;;0.70;;
15679;SDS011;15488;48.114;11.532;2022-07-01T12:52:38;0.43;;;0.43;;
15679;SDS011;15488;48.114;11.532;2022-07-01T12:55:14;0.50;;;0.50;;
15679;SDS011;15488;48.114;11.532;2022-07-01T12:57:43;0.47;;;0.47;;
15679;SDS011;15488;48.114;11.532;2022-07-01T13:00:13;0.60;;;0.60;;
15679;SDS011;15488;48.114;11.532;2022-07-01T13:02:42;0.60;;;0.60;;
15679;SDS011;15488;48.114;11.532;2022-07-01T13:05:10;0.60;;;0.60;;
15679;SDS011;15488;48.114;11.532;2022-07-01T13:07:38;0.57;;;0.57;;
15679;SDS011;15488;48.114;11.532;2022-07-01T13:10:06;0.50;;;0.50;;
15679;SDS011;15488;48.114;11.532;2022-07-01T13:12:33;0.60;;;0.60;;
15679;SDS011;15488;48.114;11.532;2022-07-01T13:15:02;0.60;;;0.60;;
15679;SDS011;15488;48.114;11.532;2022-07-01T13:17:30;0.60;;;0.60;;
15679;SDS011;15488;48.114;11.532;2022-07-01T13:19:58;0.50;;;0.50;;
15679;SDS011;15488;48.114;11.532;2022-07-01T13:22:25;0.50;;;0.50;;
15679;SDS011;15488;48.114;11.532;2022-07-01T13:24:53;0.40;;;0.40;;
15679;SDS011;15488;48.114;11.532;2022-07-01T13:27:20;0.50;;;0.50;;
15679;SDS011;15488;48.114;11.532;2022-07-01T13:29:48;0.60;;;0.60;;
15679;SDS011;15488;48.114;11.532;2022-07-01T13:32:17;0.50;;;0.50;;
15679;SDS011;15488;48.114;11.532;2022-07-01T13:34:44;0.50;;;0.50;;
15679;SDS011;15488;48.114;11.532;2022-07-01T13:37:12;0.50;;;0.50;;
15679;SDS011;15488;48.114;11.532;2022-07-01T13:39:40;0.50;;;0.50;;
15679;SDS011;15488;48.114;11.532;2022-07-01T13:42:07;0.52;;;0.52;;
15679;SDS011;15488;48.114;11.532;2022-07-01T13:44:35;0.50;;;0.50;;
15679;SDS011;15488;48.114;11.532;2022-07-01T13:47:02;0.50;;;0.50;;
15679;SDS011;15488;48.114;11.532;2022-07-01T13:49:35;0.60;;;0.50;;
15679;SDS011;15488;48.114;11.532;2022-07-01T13:52:03;0.50;;;0.50;;
15679;SDS011;15488;48.114;11.532;2022-07-01T13:54:31;0.70;;;0.60;;
15679;SDS011;15488;48.114;11.532;2022-07-01T13:56:58;0.50;;;0.50;;
15679;SDS011;15488;48.114;11.532;2022-07-01T13:59:26;0.50;;;0.50;;
15679;SDS011;15488;48.114;11.532;2022-07-01T14:01:54;0.52;;;0.52;;
15679;SDS011;15488;48.114;11.532;2022-07-01T14:04:21;0.60;;;0.60;;
15679;SDS011;15488;48.114;11.532;2022-07-01T14:06:50;0.70;;;0.70;;
15679;SDS011;15488;48.114;11.532;2022-07-01T14:09:17;0.50;;;0.50;;
15679;SDS011;15488;48.114;11.532;2022-07-01T14:11:45;0.60;;;0.60;;
15679;SDS011;15488;48.114;11.532;2022-07-01T14:14:13;0.50;;;0.50;;
15679;SDS011;15488;48.114;11.532;2022-07-01T14:16:41;0.60;;;0.60;;
15679;SDS011;15488;48.114;11.532;2022-07-01T14:19:09;0.53;;;0.53;;
15679;SDS011;15488;48.114;11.532;2022-07-01T14:21:36;0.40;;;0.40;;
15679;SDS011;15488;48.114;11.532;2022-07-01T14:24:06;0.40;;;0.40;;
15679;SDS011;15488;48.114;11.532;2022-07-01T14:26:33;0.50;;;0.50;;
15679;SDS011;15488;48.114;11.532;2022-07-01T14:29:01;0.60;;;0.60;;
15679;SDS011;15488;48.114;11.532;2022-07-01T14:31:28;0.60;;;0.60;;
15679;SDS011;15488;48.114;11.532;2022-07-01T14:33:56;0.50;;;0.50;;
15679;SDS011;15488;48.114;11.532;2022-07-01T14:36:23;0.50;;;0.50;;
15679;SDS011;15488;48.114;11.532;2022-07-01T14:38:51;0.60;;;0.60;;
15679;SDS011;15488;48.114;11.532;2022-07-01T14:41:20;0.57;;;0.57;;
15679;SDS011;15488;48.114;11.532;2022-07-01T14:43:47;0.60;;;0.60;;
15679;SDS011;15488;48.114;11.532;2022-07-01T14:46:15;0.40;;;0.40;;
15679;SDS011;15488;48.114;11.532;2022-07-01T14:48:42;0.50;;;0.50;;
15679;SDS011;15488;48.114;11.532;2022-07-01T14:51:10;0.50;;;0.50;;
15679;SDS011;15488;48.114;11.532;2022-07-01T14:53:37;0.50;;;0.50;;
15679;SDS011;15488;48.114;11.532;2022-07-01T14:56:05;0.60;;;0.60;;
15679;SDS011;15488;48.114;11.532;2022-07-01T14:58:33;0.55;;;0.55;;
15679;SDS011;15488;48.114;11.532;2022-07-01T15:01:01;0.60;;;0.60;;